Time;durP1;ratioP1;P1;durP2;ratioP2;P2;SDS_P1;SDS_P2;PMS_P1;PMS_P2;Temp;Humidity;BMP_temperature;BMP_pressure;BME280_temperature;BME280_humidity;BME280_pressure;Samples;Min_cycle;Max_cycle;Signal;HPM_P1;HPM_P2
2021/07/09 00:00:43;;;;;;;4.80;3.20;;;;;;;17.53;63.12;100283.06;10369434;28;20088;-61
2021/07/09 00:05:45;;;;;;;6.65;3.53;;;;;;;17.53;63.01;100283.91;10368311;28;20589;-61
2021/07/09 00:10:47;;;;;;;6.97;3.40;;;;;;;17.61;62.58;100284.09;10367655;28;20145;-61
2021/07/09 00:15:48;;;;;;;9.32;3.30;;;;;;;17.70;62.70;100286.00;10368306;28;20050;-61
2021/07/09 00:20:50;;;;;;;7.82;3.28;;;;;;;17.74;62.80;100282.13;10368073;28;20054;-61
2021/07/09 00:25:52;;;;;;;6.63;3.30;;;;;;;17.71;62.87;100277.06;10368603;28;20060;-61
2021/07/09 00:30:54;;;;;;;8.77;3.70;;;;;;;17.61;63.19;100275.31;10367436;28;20049;-61
2021/07/09 00:35:55;;;;;;;7.93;3.72;;;;;;;17.58;63.76;100271.16;10367134;28;20049;-61
2021/07/09 00:40:58;;;;;;;8.35;3.40;;;;;;;17.57;63.56;100271.25;10366346;28;20422;-61
2021/07/09 00:46:00;;;;;;;9.95;3.53;;;;;;;17.57;63.36;100263.31;10367401;28;20677;-61
2021/07/09 00:51:06;;;;;;;8.38;4.30;;;;;;;17.44;63.43;100260.88;10366898;28;20057;-61
2021/07/09 00:56:07;;;;;;;6.25;3.92;;;;;;;17.37;63.79;100269.41;10367166;28;20049;-61
2021/07/09 01:01:09;;;;;;;9.48;3.80;;;;;;;17.27;63.66;100271.13;10366348;28;20129;-61
2021/07/09 01:06:13;;;;;;;7.28;3.45;;;;;;;17.28;63.75;100263.03;10365959;28;20129;-61
2021/07/09 01:11:14;;;;;;;7.45;4.13;;;;;;;17.20;63.44;100262.03;10366500;28;20133;-61
2021/07/09 01:16:17;;;;;;;9.38;3.80;;;;;;;17.18;63.68;100254.19;10366226;28;20081;-61
2021/07/09 01:21:18;;;;;;;8.85;3.80;;;;;;;17.19;64.06;100258.53;10366754;28;20161;-61
2021/07/09 01:26:20;;;;;;;6.18;3.28;;;;;;;17.21;63.80;100256.59;10364430;28;20085;-61
2021/07/09 01:31:22;;;;;;;10.50;3.72;;;;;;;17.30;63.90;100263.75;10364871;28;20049;-61
2021/07/09 01:36:24;;;;;;;6.18;2.97;;;;;;;17.26;63.83;100258.88;10365475;28;20046;-61
2021/07/09 01:41:26;;;;;;;6.60;2.90;;;;;;;17.20;63.56;100264.66;10365059;28;20049;-61
2021/07/09 01:46:27;;;;;;;6.28;3.03;;;;;;;17.19;63.58;100257.69;10365662;28;20042;-61
2021/07/09 01:51:30;;;;;;;5.85;3.10;;;;;;;17.23;63.92;100265.25;10365025;28;20041;-61
2021/07/09 01:56:32;;;;;;;8.98;2.80;;;;;;;17.22;63.15;100252.97;10363852;28;20053;-61
2021/07/09 02:01:33;;;;;;;8.30;3.13;;;;;;;17.24;63.72;100264.25;10365632;28;20072;-61
2021/07/09 02:06:35;;;;;;;6.85;2.70;;;;;;;17.33;63.24;100249.47;10370013;28;20565;-60
2021/07/09 02:11:37;;;;;;;5.72;2.70;;;;;;;17.34;62.93;100240.59;10370026;28;20132;-61
2021/07/09 02:16:40;;;;;;;9.20;3.17;;;;;;;17.33;63.20;100239.75;10371151;28;20077;-61
2021/07/09 02:21:47;;;;;;;8.07;3.22;;;;;;;17.19;63.51;100236.53;10371132;28;20072;-61
2021/07/09 02:26:49;;;;;;;6.78;2.80;;;;;;;17.16;63.68;100242.91;10370380;28;20072;-61
2021/07/09 02:31:50;;;;;;;6.03;3.10;;;;;;;17.11;63.96;100245.09;10370485;28;20581;-61
2021/07/09 02:36:52;;;;;;;5.35;3.38;;;;;;;17.01;63.70;100229.16;10370531;28;20042;-61
2021/07/09 02:41:55;;;;;;;9.77;3.40;;;;;;;16.99;63.66;100223.19;10362334;28;20137;-61
2021/07/09 02:46:57;;;;;;;6.78;4.03;;;;;;;16.98;63.73;100221.47;10370312;28;20052;-61
2021/07/09 02:51:59;;;;;;;8.75;4.50;;;;;;;16.94;63.10;100216.56;10369888;28;20042;-61
2021/07/09 02:57:01;;;;;;;6.43;4.88;;;;;;;17.04;63.05;100213.06;10369382;28;20060;-61
2021/07/09 03:02:03;;;;;;;7.32;4.88;;;;;;;17.14;62.60;100213.13;10368562;28;20042;-61
2021/07/09 03:07:05;;;;;;;8.15;4.88;;;;;;;17.16;62.48;100213.84;10363713;28;20516;-61
2021/07/09 03:12:07;;;;;;;8.27;5.45;;;;;;;17.14;62.75;100213.13;10364357;28;20049;-61
2021/07/09 03:17:09;;;;;;;8.02;5.60;;;;;;;17.10;62.89;100205.59;10370771;28;20045;-61
2021/07/09 03:22:10;;;;;;;8.95;6.18;;;;;;;17.04;62.82;100202.47;10371434;28;20062;-61
2021/07/09 03:27:12;;;;;;;9.27;6.10;;;;;;;17.07;62.75;100201.41;10370431;28;20041;-61
2021/07/09 03:32:14;;;;;;;12.55;6.50;;;;;;;17.10;62.76;100195.03;10370600;28;20060;-61
2021/07/09 03:37:15;;;;;;;9.00;6.20;;;;;;;17.13;62.62;100198.25;10370467;28;20050;-61
2021/07/09 03:42:18;;;;;;;10.82;6.70;;;;;;;17.18;62.61;100200.53;10369219;28;20475;-61
2021/07/09 03:47:19;;;;;;;10.77;6.57;;;;;;;17.16;62.53;100195.34;10370327;28;20053;-61
2021/07/09 03:52:21;;;;;;;11.80;7.22;;;;;;;17.16;62.50;100197.97;10369563;28;20061;-61
2021/07/09 03:57:23;;;;;;;8.73;6.00;;;;;;;17.23;62.62;100195.69;10368591;28;20141;-61
2021/07/09 04:02:25;;;;;;;10.35;6.47;;;;;;;17.05;62.72;100195.41;10369349;28;20471;-61
2021/07/09 04:07:26;;;;;;;10.82;6.50;;;;;;;16.98;63.04;100189.78;10368688;28;20054;-61
2021/07/09 04:12:28;;;;;;;10.73;6.32;;;;;;;17.04;62.91;100206.91;10367898;28;20052;-61
2021/07/09 04:17:30;;;;;;;9.32;5.88;;;;;;;17.01;63.38;100208.03;10368519;28;20046;-61
2021/07/09 04:22:31;;;;;;;8.40;6.15;;;;;;;17.01;63.25;100215.97;10369073;28;20407;-61
2021/07/09 04:27:34;;;;;;;10.00;6.43;;;;;;;16.96;63.56;100212.84;10366865;28;20068;-61
2021/07/09 04:32:36;;;;;;;11.40;6.38;;;;;;;17.00;63.68;100221.34;10366787;28;20056;-62
2021/07/09 04:37:38;;;;;;;10.60;7.07;;;;;;;16.96;63.35;100235.78;10368074;28;20140;-61
2021/07/09 04:42:39;;;;;;;10.88;6.30;;;;;;;16.89;63.52;100227.53;10366777;28;20421;-61
2021/07/09 04:47:42;;;;;;;10.00;6.75;;;;;;;17.06;63.11;100228.78;10366477;28;20128;-61
2021/07/09 04:52:44;;;;;;;16.33;8.60;;;;;;;16.92;63.42;100229.91;10357215;28;20172;-60
2021/07/09 04:57:46;;;;;;;9.30;7.53;;;;;;;16.89;64.25;100231.97;10405027;28;20045;-61
2021/07/09 05:02:48;;;;;;;16.40;7.97;;;;;;;16.92;64.58;100235.19;10405731;28;20128;-61
2021/07/09 05:07:50;;;;;;;16.20;9.10;;;;;;;16.97;64.35;100242.75;10405486;28;20099;-61
2021/07/09 05:16:10;;;;;;;16.75;13.05;;;;;;;16.89;65.13;100245.19;10403725;28;88129;-61
2021/07/09 05:21:12;;;;;;;23.85;14.93;;;;;;;16.85;64.99;100256.94;10358338;28;92697;-62
2021/07/09 05:26:15;;;;;;;21.67;13.50;;;;;;;16.91;65.15;100256.47;10348643;28;20046;-62
2021/07/09 05:31:17;;;;;;;20.98;13.57;;;;;;;16.99;64.98;100262.81;10315224;28;20105;-62
2021/07/09 05:36:21;;;;;;;24.02;15.90;;;;;;;17.04;65.45;100260.63;10315385;28;20476;-60
2021/07/09 05:41:22;;;;;;;20.83;13.00;;;;;;;16.90;65.81;100266.19;10313878;28;20137;-60
2021/07/09 05:46:26;;;;;;;22.23;13.95;;;;;;;16.85;65.55;100260.41;10346333;28;20438;-60
2021/07/09 05:51:28;;;;;;;22.52;15.05;;;;;;;16.92;66.14;100264.25;10356119;28;20129;-60
2021/07/09 05:56:30;;;;;;;23.00;14.30;;;;;;;17.02;65.78;100267.84;10342921;28;20053;-61
2021/07/09 06:01:32;;;;;;;19.38;15.00;;;;;;;17.16;65.27;100273.81;10360642;28;20132;-61
2021/07/09 06:06:34;;;;;;;18.90;14.23;;;;;;;17.24;65.08;100276.66;10371429;28;20042;-61
2021/07/09 06:11:36;;;;;;;21.38;14.88;;;;;;;17.36;65.16;100271.25;10383682;28;20058;-61
2021/07/09 06:16:37;;;;;;;25.73;14.95;;;;;;;17.53;65.17;100270.66;10378180;28;20512;-61
2021/07/09 06:21:39;;;;;;;26.02;17.23;;;;;;;17.47;64.98;100288.84;10354758;28;20046;-61
2021/07/09 06:26:41;;;;;;;23.48;16.55;;;;;;;17.51;65.07;100284.97;10345635;28;20141;-61
2021/07/09 06:31:43;;;;;;;21.00;16.17;;;;;;;17.57;64.85;100282.69;10349563;28;20161;-61
2021/07/09 06:36:44;;;;;;;22.33;16.33;;;;;;;17.49;64.80;100282.47;10350387;28;20041;-61
2021/07/09 06:41:46;;;;;;;26.38;18.48;;;;;;;17.50;64.91;100286.81;10340809;28;20578;-61
2021/07/09 06:46:48;;;;;;;28.73;18.75;;;;;;;17.57;64.60;100292.41;10363407;28;20578;-61
2021/07/09 06:51:50;;;;;;;24.70;17.60;;;;;;;17.59;64.79;100290.47;10355376;28;20049;-61
2021/07/09 06:56:51;;;;;;;29.10;19.40;;;;;;;17.57;64.83;100289.75;10308411;28;20047;-61
2021/07/09 07:01:56;;;;;;;26.48;18.48;;;;;;;17.56;64.71;100296.88;10325966;28;20137;-62
2021/07/09 07:06:58;;;;;;;24.90;17.52;;;;;;;17.69;64.57;100302.81;10325524;28;20565;-61
2021/07/09 07:12:02;;;;;;;24.30;18.63;;;;;;;17.69;64.60;100299.31;10344724;28;20146;-61
2021/07/09 07:17:04;;;;;;;26.10;17.88;;;;;;;17.81;64.30;100303.63;10302472;28;20049;-61
2021/07/09 07:22:06;;;;;;;25.00;18.75;;;;;;;17.91;63.54;100306.31;10304576;28;20130;-61
2021/07/09 07:27:08;;;;;;;26.45;18.10;;;;;;;17.98;63.38;100304.81;10289777;28;20462;-62
2021/07/09 07:32:10;;;;;;;29.40;18.27;;;;;;;18.05;63.77;100303.34;10311830;28;20054;-61
2021/07/09 07:37:12;;;;;;;24.38;18.90;;;;;;;18.09;63.54;100304.75;10291192;28;20475;-61
2021/07/09 07:42:15;;;;;;;25.25;19.70;;;;;;;18.19;63.31;100308.31;10298209;28;20058;-61
2021/07/09 07:47:21;;;;;;;25.98;19.80;;;;;;;18.11;63.48;100310.75;10323980;28;20042;-61
2021/07/09 07:52:24;;;;;;;26.15;18.90;;;;;;;18.30;63.08;100306.44;10325323;28;20046;-61
2021/07/09 07:57:26;;;;;;;27.10;19.65;;;;;;;18.57;62.79;100300.56;10333610;28;20137;-61
2021/07/09 08:02:27;;;;;;;26.30;21.05;;;;;;;18.86;62.21;100300.66;10357097;28;20062;-61
2021/07/09 08:07:29;;;;;;;27.77;20.77;;;;;;;19.28;60.86;100303.03;10326292;28;20070;-61
2021/07/09 08:12:31;;;;;;;23.73;19.55;;;;;;;19.84;60.20;100302.38;10353428;28;20447;-61
2021/07/09 08:17:32;;;;;;;23.40;19.92;;;;;;;20.27;58.92;100295.53;10351640;28;20050;-61
2021/07/09 08:22:36;;;;;;;29.50;20.73;;;;;;;20.78;58.31;100295.13;10337365;28;20491;-61
2021/07/09 08:27:39;;;;;;;22.70;18.10;;;;;;;21.31;55.96;100286.38;10327257;28;20054;-61
2021/07/09 08:32:41;;;;;;;23.33;18.20;;;;;;;22.06;54.53;100289.41;10322512;28;20050;-62
2021/07/09 08:37:43;;;;;;;18.15;15.32;;;;;;;22.82;52.44;100284.16;10334327;28;20077;-62
2021/07/09 08:42:47;;;;;;;18.95;14.13;;;;;;;22.83;50.79;100280.47;10329207;28;20490;-62
2021/07/09 08:47:49;;;;;;;16.63;13.05;;;;;;;22.91;51.10;100281.34;10348165;28;20487;-62
2021/07/09 08:52:52;;;;;;;15.77;12.23;;;;;;;23.67;48.65;100267.81;10328693;28;20083;-62
2021/07/09 08:57:54;;;;;;;15.73;11.38;;;;;;;24.16;47.39;100264.13;10317742;28;115350;-63
2021/07/09 09:03:17;;;;;;;15.88;12.18;;;;;;;24.14;45.68;100277.63;10356726;28;20046;-62
2021/07/09 09:08:22;;;;;;;15.25;11.40;;;;;;;24.51;43.38;100284.25;10355224;28;20096;-62
2021/07/09 09:13:33;;;;;;;14.13;10.38;;;;;;;24.65;44.81;100276.34;10328339;28;20145;-62
2021/07/09 09:18:36;;;;;;;13.90;11.60;;;;;;;23.88;45.35;100282.31;10341801;28;20081;-62
2021/07/09 09:23:50;;;;;;;16.75;11.52;;;;;;;23.62;45.43;100289.69;10350652;28;20057;-62
2021/07/09 09:28:58;;;;;;;16.75;10.60;;;;;;;23.60;46.29;100286.34;10339850;28;20054;-62
2021/07/09 09:34:07;;;;;;;12.90;9.80;;;;;;;24.11;45.28;100288.69;10350944;28;20455;-61
2021/07/09 09:39:18;;;;;;;19.23;8.80;;;;;;;24.13;44.34;100293.84;10324723;28;20133;-62
2021/07/09 09:44:20;;;;;;;12.88;9.45;;;;;;;24.58;43.50;100295.91;10319914;28;20082;-63
2021/07/09 09:49:30;;;;;;;13.25;8.68;;;;;;;24.18;43.45;100304.88;10321627;28;20047;-62
2021/07/09 09:54:35;;;;;;;12.05;6.97;;;;;;;23.98;44.24;100300.88;10321851;28;20145;-62
2021/07/09 09:59:41;;;;;;;12.15;7.13;;;;;;;23.84;43.70;100297.00;10323821;28;20061;-62
2021/07/09 10:04:42;;;;;;;10.50;6.70;;;;;;;24.05;44.30;100301.84;10329686;28;20125;-62
2021/07/09 10:09:45;;;;;;;10.32;6.35;;;;;;;23.85;44.47;100301.38;10329873;28;20046;-62
2021/07/09 10:14:48;;;;;;;10.55;6.88;;;;;;;23.94;43.96;100300.34;10328374;28;20058;-62
2021/07/09 10:19:52;;;;;;;11.25;7.65;;;;;;;23.97;43.20;100300.03;10329173;28;20467;-62
2021/07/09 10:25:17;;;;;;;9.35;5.63;;;;;;;24.06;43.91;100298.19;10328935;28;20046;-62
2021/07/09 10:30:19;;;;;;;9.60;7.30;;;;;;;23.77;43.84;100296.03;10328494;28;20129;-62
2021/07/09 10:35:32;;;;;;;10.27;6.88;;;;;;;23.86;42.85;100295.00;10328335;28;20146;-63
2021/07/09 10:40:34;;;;;;;7.63;5.85;;;;;;;23.92;43.09;100289.00;10328669;28;20125;-62
2021/07/09 10:45:40;;;;;;;14.05;5.85;;;;;;;24.24;42.77;100291.69;10327260;28;20406;-62
2021/07/09 10:50:45;;;;;;;8.90;5.70;;;;;;;24.38;41.55;100283.94;10327968;28;20402;-62
2021/07/09 10:55:55;;;;;;;7.45;5.32;;;;;;;24.41;40.67;100288.97;10327438;28;20057;-62
2021/07/09 11:00:58;;;;;;;9.80;5.18;;;;;;;24.47;41.55;100290.94;10327267;28;20053;-62
2021/07/09 11:06:05;;;;;;;7.72;5.13;;;;;;;24.95;40.99;100286.25;10326783;28;20134;-62
2021/07/09 11:11:13;;;;;;;6.72;5.15;;;;;;;25.48;39.77;100288.13;10326383;28;20466;-62
2021/07/09 11:16:25;;;;;;;7.18;4.55;;;;;;;25.79;38.25;100274.66;10326454;28;20085;-62
2021/07/09 11:21:34;;;;;;;7.32;4.28;;;;;;;26.25;38.24;100267.34;10326856;28;20518;-63
2021/07/09 11:26:42;;;;;;;;;;;;;;;25.98;38.64;100270.66;10327011;28;20165;-63
2021/07/09 11:31:50;;;;;;;7.15;4.82;;;;;;;25.73;39.21;100268.13;10327069;28;20003;-63
2021/07/09 11:36:55;;;;;;;7.88;4.97;;;;;;;25.44;39.17;100276.09;10325964;28;20108;-62
2021/07/09 11:42:10;;;;;;;9.27;4.82;;;;;;;25.21;39.24;100269.88;10325450;28;20070;-62
2021/07/09 11:47:16;;;;;;;7.07;4.93;;;;;;;25.25;39.59;100271.16;10325941;28;20495;-63
2021/07/09 11:52:32;;;;;;;8.23;4.93;;;;;;;25.40;38.79;100260.56;10325457;28;20046;-62
2021/07/09 11:57:36;;;;;;;9.07;4.38;;;;;;;25.45;38.90;100259.00;10325013;28;20050;-62
2021/07/09 12:02:43;;;;;;;8.85;4.28;;;;;;;25.46;39.12;100249.13;10325829;28;20487;-63
2021/07/09 12:07:47;;;;;;;8.32;4.53;;;;;;;25.12;39.22;100256.72;10325301;28;20125;-63
2021/07/09 12:12:54;;;;;;;10.23;4.90;;;;;;;25.03;39.87;100256.78;10324010;28;20062;-63
2021/07/09 12:18:01;;;;;;;9.20;5.20;;;;;;;25.38;39.88;100249.19;10325150;28;20109;-63
2021/07/09 12:23:08;;;;;;;14.10;7.10;;;;;;;25.84;39.05;100264.19;10322501;28;20054;-63
2021/07/09 12:28:10;;;;;;;10.50;6.85;;;;;;;25.89;39.12;100254.59;10324192;28;20384;-63
2021/07/09 12:33:17;;;;;;;9.68;7.60;;;;;;;26.09;38.97;100263.00;10323270;28;20054;-63
2021/07/09 12:38:25;;;;;;;10.40;8.38;;;;;;;26.10;39.12;100269.19;10323617;28;20333;-63
2021/07/09 12:43:28;;;;;;;10.45;8.65;;;;;;;26.04;39.28;100270.72;10323737;28;20043;-63
2021/07/09 12:48:34;;;;;;;11.05;9.40;;;;;;;25.79;39.77;100259.38;10322333;28;20360;-63
2021/07/09 12:53:36;;;;;;;10.52;8.30;;;;;;;25.82;39.60;100256.34;10323209;28;20452;-63
2021/07/09 12:58:38;;;;;;;11.00;7.22;;;;;;;25.86;39.55;100249.63;10322956;28;20073;-63
2021/07/09 13:03:45;;;;;;;9.23;7.45;;;;;;;25.87;38.88;100253.94;10322655;28;20141;-63
2021/07/09 13:08:47;;;;;;;8.57;6.90;;;;;;;25.69;39.08;100256.13;10322519;28;20146;-62
2021/07/09 13:13:55;;;;;;;9.40;6.78;;;;;;;25.49;39.07;100256.81;10322798;28;20558;-63
2021/07/09 13:19:00;;;;;;;9.13;5.75;;;;;;;25.78;38.69;100249.69;10321586;28;20137;-63
2021/07/09 13:24:10;;;;;;;8.02;6.03;;;;;;;25.45;38.97;100253.66;10321246;28;20159;-63
2021/07/09 13:29:22;;;;;;;8.52;5.75;;;;;;;25.36;39.35;100260.09;10321414;28;20072;-63
2021/07/09 13:34:25;;;;;;;9.50;6.53;;;;;;;24.99;40.25;100259.97;10308537;28;20141;-63
2021/07/09 13:39:27;;;;;;;10.18;6.65;;;;;;;24.72;40.91;100257.75;10330262;28;20054;-63
2021/07/09 13:44:28;;;;;;;10.95;6.10;;;;;;;25.06;40.10;100255.59;10330389;28;20050;-62
2021/07/09 13:49:30;;;;;;;8.50;6.63;;;;;;;25.16;39.80;100260.69;10330709;28;20153;-63
2021/07/09 13:54:32;;;;;;;8.98;5.85;;;;;;;25.39;39.75;100253.53;10328169;28;20136;-63
2021/07/09 13:59:34;;;;;;;10.02;7.55;;;;;;;25.42;39.39;100261.22;10329762;28;20088;-63
2021/07/09 14:04:36;;;;;;;11.93;7.38;;;;;;;25.68;38.93;100250.94;10328043;28;20487;-63
2021/07/09 14:09:38;;;;;;;7.82;6.40;;;;;;;25.89;39.05;100259.94;10325143;28;20117;-62
2021/07/09 14:14:39;;;;;;;9.35;6.20;;;;;;;26.04;38.56;100260.00;10328439;28;20585;-63
2021/07/09 14:19:41;;;;;;;7.97;6.20;;;;;;;25.78;38.19;100265.75;10328789;28;20510;-63
2021/07/09 14:24:45;;;;;;;7.47;4.88;;;;;;;25.50;38.20;100262.00;10344242;28;20149;-63
2021/07/09 14:29:47;;;;;;;5.72;4.20;;;;;;;25.28;37.53;100264.63;10328680;28;20065;-63
2021/07/09 14:34:48;;;;;;;5.70;4.43;;;;;;;25.49;37.87;100265.66;10327075;28;20082;-62
2021/07/09 14:39:54;;;;;;;6.80;4.43;;;;;;;25.80;37.21;100249.50;10327525;28;20070;-62
2021/07/09 14:44:56;;;;;;;6.88;5.15;;;;;;;25.74;37.16;100248.38;10327683;28;20491;-62
2021/07/09 14:49:58;;;;;;;5.78;4.50;;;;;;;25.35;36.96;100254.91;10327758;28;20121;-62
2021/07/09 14:55:00;;;;;;;5.57;4.47;;;;;;;25.28;37.47;100244.06;10326215;28;20140;-62
2021/07/09 15:00:04;;;;;;;5.55;4.20;;;;;;;24.82;38.43;100253.03;10328776;28;20134;-62
2021/07/09 15:05:08;;;;;;;7.60;4.15;;;;;;;24.39;38.12;100254.34;10325735;28;20093;-63
2021/07/09 15:10:23;;;;;;;4.53;3.70;;;;;;;24.32;38.42;100256.06;10326392;28;20074;-63
2021/07/09 15:15:25;;;;;;;8.27;3.97;;;;;;;24.46;38.98;100252.66;10327444;28;20129;-62
2021/07/09 15:20:26;;;;;;;7.65;4.03;;;;;;;24.50;39.09;100251.31;10326740;28;20046;-63
2021/07/09 15:25:28;;;;;;;8.38;4.70;;;;;;;24.38;39.05;100252.69;10326899;28;20133;-62
2021/07/09 15:30:31;;;;;;;7.13;4.10;;;;;;;24.42;39.30;100253.19;10327136;28;20046;-62
2021/07/09 15:35:33;;;;;;;8.30;4.63;;;;;;;24.36;38.97;100252.03;10325527;28;20050;-62
2021/07/09 15:40:35;;;;;;;6.57;4.43;;;;;;;24.11;40.02;100256.63;10325100;28;20122;-62
2021/07/09 15:45:37;;;;;;;8.57;4.60;;;;;;;24.20;39.85;100246.75;10325830;28;20158;-62
2021/07/09 15:50:38;;;;;;;9.82;5.13;;;;;;;24.07;40.12;100249.09;10325829;28;20101;-63
2021/07/09 15:55:42;;;;;;;8.13;4.63;;;;;;;24.08;40.23;100240.91;10324692;28;20058;-62
2021/07/09 16:00:46;;;;;;;10.00;4.47;;;;;;;24.07;40.51;100241.94;10324874;28;20050;-62
2021/07/09 16:05:48;;;;;;;6.95;4.18;;;;;;;24.08;40.57;100240.91;10325387;28;20480;-63
2021/07/09 16:10:49;;;;;;;6.82;4.90;;;;;;;24.18;40.32;100230.84;10324304;28;20137;-63
2021/07/09 16:15:51;;;;;;;10.65;4.72;;;;;;;24.65;39.80;100238.91;10322907;28;20054;-62
2021/07/09 16:20:53;;;;;;;6.72;4.25;;;;;;;24.64;40.05;100233.69;10324368;28;20089;-62
2021/07/09 16:25:55;;;;;;;6.22;4.38;;;;;;;24.51;39.81;100226.22;10324409;28;20132;-63
2021/07/09 16:30:57;;;;;;;8.35;4.70;;;;;;;24.42;39.69;100226.44;10323844;28;20133;-62
2021/07/09 16:35:59;;;;;;;7.15;5.32;;;;;;;24.04;40.48;100223.50;10323962;28;20060;-62
2021/07/09 16:41:01;;;;;;;11.27;5.63;;;;;;;23.68;41.65;100211.56;10323361;28;20502;-62
2021/07/09 16:46:03;;;;;;;6.32;4.55;;;;;;;23.51;42.37;100219.75;10323745;28;20061;-62
2021/07/09 16:51:04;;;;;;;7.38;5.55;;;;;;;23.51;42.33;100220.59;10323792;28;20046;-62
2021/07/09 16:56:06;;;;;;;7.32;5.10;;;;;;;23.49;42.72;100227.94;10323079;28;20054;-62
2021/07/09 17:01:08;;;;;;;18.20;6.53;;;;;;;23.24;43.52;100219.06;10323139;28;20054;-62
2021/07/09 17:06:10;;;;;;;11.68;5.85;;;;;;;23.03;43.47;100220.50;10323244;28;20112;-62
2021/07/09 17:11:11;;;;;;;7.82;5.25;;;;;;;22.82;45.40;100218.31;10322374;28;20133;-62
2021/07/09 17:16:13;;;;;;;6.55;4.35;;;;;;;22.76;44.33;100220.81;10322621;28;20137;-62
2021/07/09 17:21:24;;;;;;;7.18;4.00;;;;;;;22.75;43.97;100216.47;10322550;28;20083;-62
2021/07/09 17:26:26;;;;;;;7.15;4.00;;;;;;;22.60;42.89;100211.72;10322736;28;20061;-62
2021/07/09 17:31:27;;;;;;;9.27;3.88;;;;;;;22.48;43.23;100223.69;10321994;28;20126;-62
2021/07/09 17:36:29;;;;;;;8.55;3.28;;;;;;;22.43;42.07;100220.63;10322226;28;20078;-63
2021/07/09 17:41:31;;;;;;;4.78;3.10;;;;;;;22.38;41.40;100225.63;10321756;28;20506;-62
2021/07/09 17:46:32;;;;;;;5.43;3.42;;;;;;;22.52;42.54;100237.50;10353229;28;20137;-62
2021/07/09 17:51:36;;;;;;;5.07;3.45;;;;;;;22.59;42.86;100234.06;10322567;28;20053;-62
2021/07/09 17:56:55;;;;;;;5.47;3.78;;;;;;;22.17;43.02;100233.19;10321139;28;20454;-62
2021/07/09 18:01:56;;;;;;;5.53;3.50;;;;;;;22.02;44.50;100240.06;10322661;28;20125;-62
2021/07/09 18:06:58;;;;;;;7.30;3.60;;;;;;;22.09;44.04;100234.97;10322031;28;20493;-62
2021/07/09 18:12:00;;;;;;;4.90;3.45;;;;;;;22.22;44.23;100240.69;10321446;28;20262;-62
2021/07/09 18:17:02;;;;;;;5.05;3.55;;;;;;;22.03;44.82;100231.09;10321446;28;20582;-62
2021/07/09 18:22:04;;;;;;;5.63;3.63;;;;;;;21.76;44.93;100232.06;10326067;28;20472;-62
2021/07/09 18:27:05;;;;;;;5.88;4.15;;;;;;;21.43;46.26;100240.81;10328361;28;20054;-62
2021/07/09 18:32:07;;;;;;;5.80;3.90;;;;;;;21.17;46.86;100247.81;10328199;28;20049;-62
2021/07/09 18:37:09;;;;;;;4.78;3.63;;;;;;;21.10;46.65;100249.41;10328780;28;20164;-62
2021/07/09 18:42:11;;;;;;;6.57;3.90;;;;;;;20.98;47.29;100238.19;10328639;28;20042;-62
2021/07/09 18:47:12;;;;;;;7.28;4.32;;;;;;;20.97;47.33;100247.13;10327282;28;20169;-62
2021/07/09 18:52:14;;;;;;;6.47;3.75;;;;;;;21.03;47.61;100251.00;10328550;28;20050;-62
2021/07/09 18:57:16;;;;;;;8.85;4.15;;;;;;;21.00;48.75;100256.63;10318241;28;20489;-62
2021/07/09 19:02:18;;;;;;;5.68;4.40;;;;;;;20.91;49.08;100254.84;10323533;28;20403;-62
2021/07/09 19:07:20;;;;;;;7.72;4.63;;;;;;;20.82;50.18;100248.63;10338549;28;20054;-62
2021/07/09 19:12:22;;;;;;;6.38;4.63;;;;;;;20.67;50.00;100250.13;10325451;28;20141;-62
2021/07/09 19:17:24;;;;;;;9.75;4.53;;;;;;;20.49;49.98;100248.34;10323931;28;20058;-62
2021/07/09 19:22:25;;;;;;;8.75;4.82;;;;;;;20.38;51.46;100244.06;10323992;28;20145;-62
2021/07/09 19:27:27;;;;;;;7.97;4.85;;;;;;;20.44;51.71;100248.78;10324430;28;20133;-62
2021/07/09 19:32:29;;;;;;;8.65;5.38;;;;;;;20.35;51.88;100251.50;10324986;28;20402;-62
2021/07/09 19:37:31;;;;;;;10.18;5.95;;;;;;;20.25;52.61;100247.03;10324193;28;20490;-62
2021/07/09 19:42:33;;;;;;;8.80;5.55;;;;;;;20.01;52.44;100257.31;10324824;28;20137;-62
2021/07/09 19:47:34;;;;;;;7.85;5.65;;;;;;;19.90;53.89;100261.97;10324444;28;20042;-62
2021/07/09 19:52:37;;;;;;;8.80;5.93;;;;;;;19.83;53.78;100269.66;10323292;28;20125;-62
2021/07/09 19:57:39;;;;;;;6.18;5.15;;;;;;;19.96;53.37;100274.69;10322504;28;20054;-62
2021/07/09 20:02:42;;;;;;;5.80;5.07;;;;;;;20.10;53.06;100267.09;10336997;28;20136;-62
2021/07/09 20:07:44;;;;;;;9.23;4.97;;;;;;;20.10;52.81;100283.03;10362057;28;20045;-62
2021/07/09 20:12:46;;;;;;;9.88;5.97;;;;;;;20.02;53.84;100288.22;10364683;28;20123;-62
2021/07/09 20:17:53;;;;;;;8.70;5.82;;;;;;;19.95;54.84;100300.38;10348527;28;20094;-62
2021/07/09 20:22:55;;;;;;;8.50;5.65;;;;;;;19.83;55.37;100292.72;10323461;28;20113;-62
2021/07/09 20:27:58;;;;;;;9.13;6.05;;;;;;;19.81;55.62;100299.94;10321916;28;20050;-62
2021/07/09 20:33:00;;;;;;;7.75;6.35;;;;;;;19.73;55.96;100305.97;10356237;28;20132;-62
2021/07/09 20:38:02;;;;;;;10.40;6.60;;;;;;;19.73;56.42;100303.31;10360904;28;20061;-62
2021/07/09 20:43:04;;;;;;;10.43;6.40;;;;;;;19.80;56.54;100301.78;10348065;28;20482;-62
2021/07/09 20:48:08;;;;;;;10.85;7.32;;;;;;;19.68;56.59;100299.41;10323677;28;20422;-62
2021/07/09 20:53:10;;;;;;;8.60;6.88;;;;;;;19.61;56.86;100299.13;10321831;28;20078;-62
2021/07/09 20:58:12;;;;;;;9.82;6.97;;;;;;;19.48;57.06;100300.41;10323101;28;20093;-65
2021/07/09 21:03:14;;;;;;;9.10;6.90;;;;;;;19.37;57.53;100312.81;10323226;28;20125;-62
2021/07/09 21:08:16;;;;;;;10.45;7.97;;;;;;;19.23;57.86;100305.28;10323078;28;20082;-62
2021/07/09 21:13:18;;;;;;;12.40;8.02;;;;;;;19.05;58.60;100298.13;10328638;28;20098;-62
2021/07/09 21:18:22;;;;;;;10.88;8.02;;;;;;;18.91;59.03;100291.34;10331791;28;20046;-62
2021/07/09 21:23:25;;;;;;;12.38;8.40;;;;;;;18.74;59.69;100285.84;10297921;28;20058;-62
2021/07/09 21:28:27;;;;;;;12.07;8.23;;;;;;;18.66;59.71;100289.19;10317551;28;20046;-62
2021/07/09 21:33:29;;;;;;;11.85;8.20;;;;;;;18.58;60.11;100289.84;10313004;28;20514;-62
2021/07/09 21:38:31;;;;;;;12.00;8.75;;;;;;;18.44;60.23;100297.34;10326749;28;20065;-61
2021/07/09 21:43:34;;;;;;;14.07;9.13;;;;;;;18.31;60.36;100291.41;10327329;28;20045;-61
2021/07/09 21:48:36;;;;;;;12.40;9.93;;;;;;;17.85;61.34;100286.53;10333026;28;20050;-61
2021/07/09 21:53:38;;;;;;;11.93;9.27;;;;;;;17.73;61.82;100279.56;10342237;28;20050;-61
2021/07/09 21:58:39;;;;;;;11.07;9.50;;;;;;;17.79;61.96;100285.19;10328104;28;20129;-61
2021/07/09 22:03:41;;;;;;;11.70;9.77;;;;;;;17.83;61.89;100278.69;10339457;28;20129;-61
2021/07/09 22:08:43;;;;;;;14.50;10.50;;;;;;;17.70;61.73;100271.91;10337269;28;20129;-61
2021/07/09 22:13:44;;;;;;;12.73;11.43;;;;;;;17.39;62.62;100281.56;10341245;28;20052;-61
2021/07/09 22:18:46;;;;;;;15.73;11.95;;;;;;;17.18;62.89;100282.44;10353607;28;20080;-61
2021/07/09 22:23:48;;;;;;;17.10;11.77;;;;;;;16.94;63.71;100277.34;10331653;28;20046;-61
2021/07/09 22:28:50;;;;;;;14.40;12.10;;;;;;;16.83;63.89;100288.75;10338683;28;20133;-61
2021/07/09 22:33:52;;;;;;;14.50;12.20;;;;;;;16.93;63.85;100294.16;10333903;28;20089;-61
2021/07/09 22:38:54;;;;;;;15.45;11.55;;;;;;;17.03;63.62;100280.09;10331760;28;20393;-61
2021/07/09 22:46:22;;;;;;;13.30;10.77;;;;;;;17.03;63.48;100297.75;10647181;27;20563;-62
2021/07/09 22:51:24;;;;;;;14.88;11.88;;;;;;;17.01;63.68;100299.66;10591779;27;20039;-62
2021/07/09 22:56:26;;;;;;;14.05;11.32;;;;;;;17.06;63.46;100292.19;10599297;27;20039;-62
2021/07/09 23:01:27;;;;;;;13.60;10.50;;;;;;;17.01;63.35;100295.22;10642871;27;20146;-62
2021/07/09 23:06:29;;;;;;;13.52;10.27;;;;;;;16.94;63.54;100303.75;10632060;27;20079;-62